Weather at Montreal International (Mirabel) Airport

Public forecast

Using degrees Celsius for public forecast. Weather courtesy of forecast.io.

Current aviation weather report (METAR) for Montreal International (Mirabel) Airport

2024/05/18 12:00 (retrieved 34 minutes ago)

CYMX 181200Z 06007KT 030V100 25SM FEW040 FEW085 BKN130 17/15 A3002 RMK CU1AC2AC5 CU TR SLP167

Aviation forecast (TAF) for Montreal International (Mirabel) Airport

2024/05/18 12:42 (retrieved 0 seconds ago)

TAF CYMX 181140Z 1812/1912 06005KT P6SM SCT050 BKN100 TEMPO 1812/1813 P6SM -SHRA BKN050 BKN100 BECMG 1815/1817 11008KT FM181700 11008KT P6SM SCT050 SCT100 BECMG 1901/1903 VRB03KT RMK NXT FCST BY 181800Z